createdAt,value
2022-08-14T00:01:10.279Z,1.98
2022-08-14T00:03:38.540Z,2.63
2022-08-14T00:06:25.466Z,2.53
2022-08-14T00:08:54.180Z,2.40
2022-08-14T00:11:25.771Z,2.50
2022-08-14T00:13:55.469Z,2.75
2022-08-14T00:16:41.364Z,2.22
2022-08-14T00:19:19.277Z,2.67
2022-08-14T00:21:51.879Z,2.03
2022-08-14T00:24:28.612Z,2.20
2022-08-14T00:26:58.433Z,2.22
2022-08-14T00:29:33.195Z,2.50
2022-08-14T00:32:51.943Z,2.50
2022-08-14T00:34:54.212Z,2.28
2022-08-14T00:37:20.694Z,2.13
2022-08-14T00:39:47.244Z,2.45
2022-08-14T00:42:21.492Z,2.40
2022-08-14T00:45:09.695Z,2.47
2022-08-14T00:47:44.659Z,2.30
2022-08-14T00:50:17.737Z,2.95
2022-08-14T00:52:47.443Z,2.55
2022-08-14T00:55:18.632Z,2.47
2022-08-14T00:57:45.192Z,2.47
2022-08-14T01:00:34.005Z,2.25
2022-08-14T01:03:01.518Z,2.10
2022-08-14T01:05:41.702Z,2.25
2022-08-14T01:08:51.814Z,2.13
2022-08-14T01:11:19.420Z,2.38
2022-08-14T01:13:50.799Z,1.88
2022-08-14T01:16:27.927Z,2.35
2022-08-14T01:19:12.965Z,2.75
2022-08-14T01:21:46.769Z,2.80
2022-08-14T01:24:15.444Z,2.85
2022-08-14T01:26:53.236Z,2.38
2022-08-14T01:29:59.329Z,2.97
2022-08-14T01:32:07.204Z,2.92
2022-08-14T01:35:19.270Z,3.78
2022-08-14T01:37:24.693Z,3.40
2022-08-14T01:39:54.398Z,2.95
2022-08-14T01:42:31.260Z,2.42
2022-08-14T01:44:59.177Z,2.58
2022-08-14T01:47:25.564Z,2.45
2022-08-14T01:50:01.670Z,2.80
2022-08-14T01:52:59.087Z,2.70
2022-08-14T01:55:25.126Z,2.30
2022-08-14T01:58:01.307Z,2.92
2022-08-14T02:00:30.969Z,2.65
2022-08-14T02:03:04.937Z,2.38
2022-08-14T02:05:38.125Z,2.50
2022-08-14T02:08:08.731Z,2.33
2022-08-14T02:10:36.638Z,2.72
2022-08-14T02:13:16.122Z,2.70
2022-08-14T02:15:43.606Z,2.72
2022-08-14T02:18:10.292Z,2.83
2022-08-14T02:20:39.340Z,2.88
2022-08-14T02:23:06.626Z,2.42
2022-08-14T02:25:34.813Z,3.50
2022-08-14T02:28:22.182Z,2.60
2022-08-14T02:30:48.543Z,2.53
2022-08-14T02:33:19.162Z,3.63
2022-08-14T02:35:48.275Z,2.80
2022-08-14T02:38:29.425Z,2.88
2022-08-14T02:40:58.317Z,2.78
2022-08-14T02:43:24.858Z,2.95
2022-08-14T02:46:04.197Z,3.05
2022-08-14T02:49:03.089Z,2.63
2022-08-14T02:51:23.202Z,2.78
2022-08-14T02:53:49.957Z,3.00
2022-08-14T02:56:30.742Z,2.92
2022-08-14T02:59:08.210Z,2.85
2022-08-14T03:01:43.813Z,2.90
2022-08-14T03:04:17.636Z,3.65
2022-08-14T03:06:57.101Z,3.42
2022-08-14T03:09:25.297Z,3.00
2022-08-14T03:12:12.500Z,3.20
2022-08-14T03:14:53.314Z,3.10
2022-08-14T03:17:19.725Z,3.28
2022-08-14T03:19:49.737Z,3.50
2022-08-14T03:22:18.040Z,3.35
2022-08-14T03:24:44.841Z,2.92
2022-08-14T03:27:13.881Z,3.15
2022-08-14T03:29:40.838Z,2.97
2022-08-14T03:32:07.906Z,3.28
2022-08-14T03:34:47.872Z,2.85
2022-08-14T03:37:51.459Z,2.50
2022-08-14T03:40:06.928Z,2.88
2022-08-14T03:42:39.405Z,3.75
2022-08-14T03:45:18.683Z,3.75
2022-08-14T03:47:58.416Z,3.05
2022-08-14T03:50:31.514Z,3.65
2022-08-14T03:53:02.998Z,4.40
2022-08-14T03:55:30.745Z,4.18
2022-08-14T03:57:57.813Z,5.10
2022-08-14T04:00:43.738Z,3.83
2022-08-14T04:03:14.270Z,4.97
2022-08-14T04:05:49.007Z,4.90
2022-08-14T04:08:30.124Z,5.85
2022-08-14T04:11:01.057Z,5.35
2022-08-14T04:13:31.457Z,4.50
2022-08-14T04:16:04.863Z,5.53
2022-08-14T04:18:33.987Z,5.65
2022-08-14T04:21:01.134Z,6.07
2022-08-14T04:23:29.987Z,5.95
2022-08-14T04:26:14.321Z,6.38
2022-08-14T04:29:06.969Z,5.25
2022-08-14T04:33:01.778Z,7.00
2022-08-14T04:34:17.270Z,5.45
2022-08-14T04:37:07.291Z,6.22
2022-08-14T04:39:56.592Z,5.93
2022-08-14T04:42:47.510Z,6.30
2022-08-14T04:45:20.392Z,5.63
2022-08-14T04:48:05.532Z,6.07
2022-08-14T04:50:43.753Z,6.90
2022-08-14T04:53:18.937Z,7.80
2022-08-14T04:55:51.648Z,6.10
2022-08-14T04:58:32.674Z,6.50
2022-08-14T05:01:01.881Z,6.55
2022-08-14T05:03:31.780Z,5.78
2022-08-14T05:06:00.381Z,6.10
2022-08-14T05:08:32.219Z,5.28
2022-08-14T05:11:15.341Z,6.18
2022-08-14T05:16:31.101Z,4.18
2022-08-14T05:19:19.161Z,4.93
2022-08-14T05:21:59.302Z,6.55
2022-08-14T05:24:28.953Z,4.95
2022-08-14T05:26:55.648Z,6.15
2022-08-14T05:29:23.082Z,5.82
2022-08-14T05:31:49.574Z,4.68
2022-08-14T05:34:23.772Z,5.40
2022-08-14T05:37:02.003Z,4.65
2022-08-14T05:39:29.900Z,5.43
2022-08-14T05:41:57.421Z,4.47
2022-08-14T05:44:27.872Z,5.95
2022-08-14T05:46:56.914Z,5.63
2022-08-14T05:49:26.076Z,5.03
2022-08-14T05:52:01.886Z,7.15
2022-08-14T05:54:30.643Z,6.60
2022-08-14T05:57:04.482Z,5.28
2022-08-14T05:59:39.313Z,5.28
2022-08-14T06:02:11.173Z,6.75
2022-08-14T06:04:39.207Z,5.25
2022-08-14T06:07:06.368Z,6.25
2022-08-14T06:09:36.011Z,5.72
2022-08-14T06:12:11.956Z,6.13
2022-08-14T06:14:38.744Z,6.07
2022-08-14T06:17:05.751Z,6.72
2022-08-14T06:19:32.140Z,6.35
2022-08-14T06:21:59.539Z,6.22
2022-08-14T06:24:27.004Z,7.50
2022-08-14T06:26:56.697Z,6.13
2022-08-14T06:29:32.193Z,5.45
2022-08-14T06:32:38.133Z,5.40
2022-08-14T06:35:03.292Z,5.90
2022-08-14T06:37:47.827Z,5.60
2022-08-14T06:40:26.834Z,6.47
2022-08-14T06:43:06.919Z,5.70
2022-08-14T06:45:36.146Z,5.63
2022-08-14T06:48:06.155Z,6.90
2022-08-14T06:50:39.014Z,6.57
2022-08-14T06:53:05.528Z,5.53
2022-08-14T06:55:32.211Z,6.60
2022-08-14T06:57:58.950Z,5.05
2022-08-14T07:00:30.633Z,5.80
2022-08-14T07:03:17.044Z,5.53
2022-08-14T07:05:58.120Z,5.68
2022-08-14T07:08:29.632Z,5.75
2022-08-14T07:11:00.088Z,6.05
2022-08-14T07:13:28.233Z,6.57
2022-08-14T07:15:56.591Z,5.40
2022-08-14T07:18:32.803Z,5.38
2022-08-14T07:21:00.876Z,5.45
2022-08-14T07:23:27.898Z,6.40
2022-08-14T07:25:59.189Z,5.45
2022-08-14T07:28:26.127Z,5.80
2022-08-14T07:31:04.767Z,4.50
2022-08-14T07:33:50.920Z,5.25
2022-08-14T07:36:27.400Z,4.80
2022-08-14T07:38:57.733Z,4.53
2022-08-14T07:41:24.188Z,5.10
2022-08-14T07:43:55.483Z,4.93
2022-08-14T07:46:29.214Z,5.80
2022-08-14T07:48:56.818Z,4.43
2022-08-14T07:51:23.509Z,5.00
2022-08-14T07:53:50.237Z,5.00
2022-08-14T07:56:43.986Z,5.30
2022-08-14T07:59:10.684Z,5.03
2022-08-14T08:01:48.265Z,5.97
2022-08-14T08:04:27.242Z,5.45
2022-08-14T08:06:54.798Z,5.82
2022-08-14T08:09:25.122Z,5.65
2022-08-14T08:12:01.638Z,4.68
2022-08-14T08:14:55.463Z,5.45
2022-08-14T08:17:23.314Z,5.13
2022-08-14T08:19:51.487Z,5.15
2022-08-14T08:22:18.543Z,5.18
2022-08-14T08:24:44.926Z,4.53
2022-08-14T08:27:19.731Z,4.80
2022-08-14T08:29:50.806Z,4.93
2022-08-14T08:32:18.184Z,5.00
2022-08-14T08:34:46.154Z,4.88
2022-08-14T08:37:13.702Z,6.05
2022-08-14T08:40:01.927Z,5.72
2022-08-14T08:42:31.534Z,5.18
2022-08-14T08:45:06.350Z,4.78
2022-08-14T08:47:40.198Z,4.32
2022-08-14T08:52:59.774Z,4.55
2022-08-14T08:55:40.707Z,4.57
2022-08-14T08:58:20.268Z,4.22
2022-08-14T09:00:56.016Z,4.68
2022-08-14T09:03:25.590Z,4.60
2022-08-14T09:05:54.378Z,4.78
2022-08-14T09:08:31.265Z,3.88
2022-08-14T09:11:19.603Z,4.20
2022-08-14T09:13:50.430Z,4.43
2022-08-14T09:16:21.099Z,4.00
2022-08-14T09:18:48.783Z,4.93
2022-08-14T09:21:16.336Z,4.28
2022-08-14T09:24:26.300Z,4.55
2022-08-14T09:26:29.849Z,5.10
2022-08-14T09:28:59.365Z,4.95
2022-08-14T09:31:28.616Z,4.15
2022-08-14T09:34:47.420Z,4.07
2022-08-14T09:37:37.365Z,4.88
2022-08-14T09:40:40.806Z,3.83
2022-08-14T09:43:38.490Z,4.28
2022-08-14T09:46:07.774Z,4.38
2022-08-14T09:48:34.441Z,4.68
2022-08-14T09:54:19.269Z,4.15
2022-08-14T09:56:32.796Z,4.45
2022-08-14T09:59:14.916Z,4.93
2022-08-14T10:01:43.609Z,4.95
2022-08-14T10:04:33.362Z,4.70
2022-08-14T10:07:03.524Z,4.30
2022-08-14T10:09:33.287Z,4.35
2022-08-14T10:12:04.298Z,4.47
2022-08-14T10:14:36.409Z,4.93
2022-08-14T10:17:06.469Z,4.10
2022-08-14T10:19:35.924Z,4.60
2022-08-14T10:23:12.978Z,4.10
2022-08-14T10:24:51.024Z,5.10
2022-08-14T10:27:23.544Z,4.60
2022-08-14T10:29:52.711Z,3.80
2022-08-14T10:32:28.560Z,3.83
2022-08-14T10:35:13.800Z,4.32
2022-08-14T10:37:51.971Z,4.30
2022-08-14T10:40:36.750Z,3.67
2022-08-14T10:43:25.351Z,3.28
2022-08-14T10:46:03.901Z,4.10
2022-08-14T10:48:45.878Z,4.20
2022-08-14T10:51:15.021Z,4.47
2022-08-14T10:53:41.434Z,4.32
2022-08-14T10:56:21.550Z,4.05
2022-08-14T10:59:06.058Z,4.13
2022-08-14T11:01:40.925Z,3.70
2022-08-14T11:04:20.189Z,3.60
2022-08-14T11:06:53.128Z,3.25
2022-08-14T11:09:19.580Z,3.35
2022-08-14T11:11:49.616Z,3.30
2022-08-14T11:14:23.035Z,3.72
2022-08-14T11:16:54.007Z,3.10
2022-08-14T11:19:25.133Z,3.47
2022-08-14T11:21:56.018Z,4.03
2022-08-14T11:24:54.463Z,3.65
2022-08-14T11:27:18.898Z,3.40
2022-08-14T11:29:52.675Z,3.15
2022-08-14T11:32:28.043Z,3.97
2022-08-14T11:34:57.422Z,3.13
2022-08-14T11:37:36.951Z,3.67
2022-08-14T11:40:16.362Z,3.58
2022-08-14T11:42:58.882Z,3.58
2022-08-14T11:45:37.389Z,2.92
2022-08-14T11:49:03.196Z,3.50
2022-08-14T11:51:12.824Z,3.53
2022-08-14T11:53:42.179Z,3.03
2022-08-14T11:56:11.199Z,2.67
2022-08-14T11:58:38.577Z,3.00
2022-08-14T12:01:07.953Z,3.45
2022-08-14T12:03:51.341Z,2.97
2022-08-14T12:06:28.016Z,3.30
2022-08-14T12:09:00.238Z,3.10
2022-08-14T12:11:43.429Z,3.70
2022-08-14T12:14:13.340Z,3.35
2022-08-14T12:17:01.970Z,3.33
2022-08-14T12:19:29.287Z,2.80
2022-08-14T12:22:00.401Z,3.80
2022-08-14T12:24:36.011Z,2.28
2022-08-14T12:27:03.540Z,3.50
2022-08-14T12:29:29.938Z,3.45
2022-08-14T12:32:08.923Z,3.38
2022-08-14T12:34:45.209Z,3.33
2022-08-14T12:37:11.989Z,3.40
2022-08-14T12:39:40.258Z,3.60
2022-08-14T12:42:07.795Z,3.20
2022-08-14T12:44:42.515Z,3.35
2022-08-14T12:47:17.035Z,2.78
2022-08-14T12:49:52.524Z,3.40
2022-08-14T12:52:45.159Z,2.85
2022-08-14T12:58:00.862Z,2.67
2022-08-14T13:00:36.952Z,2.70
2022-08-14T13:03:04.910Z,2.50
2022-08-14T13:05:34.925Z,2.83
2022-08-14T13:08:05.477Z,2.35
2022-08-14T13:10:51.219Z,1.83
2022-08-14T13:13:20.573Z,2.10
2022-08-14T13:15:56.263Z,2.20
2022-08-14T13:18:27.752Z,2.00
2022-08-14T13:21:01.710Z,2.20
2022-08-14T13:23:33.679Z,2.17
2022-08-14T13:26:03.773Z,2.17
2022-08-14T13:28:33.808Z,2.45
2022-08-14T13:31:04.408Z,1.80
2022-08-14T13:33:37.646Z,2.40
2022-08-14T13:36:09.093Z,2.28
2022-08-14T13:38:35.512Z,2.90
2022-08-14T13:41:02.698Z,2.20
2022-08-14T13:43:31.603Z,1.65
2022-08-14T13:46:03.843Z,1.90
2022-08-14T13:48:32.248Z,2.05
2022-08-14T13:51:05.699Z,1.75
2022-08-14T13:53:52.637Z,1.95
2022-08-14T13:56:36.848Z,1.60
2022-08-14T13:59:03.993Z,2.05
2022-08-14T14:01:38.288Z,1.85
2022-08-14T14:04:19.047Z,1.90
2022-08-14T14:06:48.508Z,2.20
2022-08-14T14:09:18.357Z,1.90
2022-08-14T14:11:46.603Z,1.90
2022-08-14T14:14:44.531Z,2.25
2022-08-14T14:17:07.159Z,1.67
2022-08-14T14:19:34.966Z,1.60
2022-08-14T14:22:09.816Z,2.28
2022-08-14T14:24:40.072Z,2.38
2022-08-14T14:27:39.405Z,1.60
2022-08-14T14:30:01.377Z,1.60
2022-08-14T14:32:32.159Z,1.90
2022-08-14T14:35:02.669Z,1.75
2022-08-14T14:37:29.919Z,1.50
2022-08-14T14:40:53.174Z,1.45
2022-08-14T14:42:51.825Z,1.80
2022-08-14T14:45:22.098Z,1.50
2022-08-14T14:47:59.039Z,1.73
2022-08-14T14:50:26.544Z,1.85
2022-08-14T14:53:12.423Z,1.88
2022-08-14T14:55:59.594Z,1.70
2022-08-14T14:58:30.535Z,1.52
2022-08-14T15:01:03.693Z,1.67
2022-08-14T15:03:39.286Z,1.70
2022-08-14T15:06:06.500Z,1.70
2022-08-14T15:08:56.640Z,1.38
2022-08-14T15:11:20.437Z,1.98
2022-08-14T15:13:53.372Z,1.70
2022-08-14T15:16:20.389Z,1.52
2022-08-14T15:18:49.145Z,1.52
2022-08-14T15:21:15.920Z,1.30
2022-08-14T15:23:44.313Z,1.70
2022-08-14T15:26:24.230Z,1.50
2022-08-14T15:29:02.914Z,1.58
2022-08-14T15:31:32.159Z,1.60
2022-08-14T15:34:43.804Z,1.73
2022-08-14T15:36:57.837Z,1.95
2022-08-14T15:39:24.303Z,1.40
2022-08-14T15:41:50.909Z,1.50
2022-08-14T15:44:24.794Z,1.83
2022-08-14T15:46:52.196Z,1.95
2022-08-14T15:49:19.646Z,2.00
2022-08-14T15:51:46.193Z,1.70
2022-08-14T15:54:12.935Z,1.92
2022-08-14T15:56:43.071Z,1.90
2022-08-14T15:59:10.198Z,1.73
2022-08-14T16:01:53.470Z,1.70
2022-08-14T16:04:23.954Z,1.70
2022-08-14T16:06:55.499Z,1.77
2022-08-14T16:09:22.701Z,1.92
2022-08-14T16:11:50.718Z,2.00
2022-08-14T16:14:21.488Z,2.92
2022-08-14T16:16:51.618Z,2.50
2022-08-14T16:19:27.129Z,2.50
2022-08-14T16:22:03.550Z,2.13
2022-08-14T16:25:02.330Z,2.50
2022-08-14T16:27:33.749Z,2.50
2022-08-14T16:30:06.301Z,2.10
2022-08-14T16:32:54.597Z,2.53
2022-08-14T16:35:24.991Z,2.25
2022-08-14T16:37:53.000Z,2.40
2022-08-14T16:43:03.923Z,2.40
2022-08-14T16:45:43.868Z,3.17
2022-08-14T16:48:57.548Z,2.20
2022-08-14T16:51:00.864Z,1.90
2022-08-14T16:56:22.976Z,2.40
2022-08-14T16:59:05.123Z,2.53
2022-08-14T17:01:32.270Z,3.65
2022-08-14T17:04:09.736Z,3.08
2022-08-14T17:06:47.905Z,2.00
2022-08-14T17:09:29.835Z,2.70
2022-08-14T17:12:33.780Z,2.65
2022-08-14T17:15:14.996Z,2.17
2022-08-14T17:17:54.452Z,2.38
2022-08-14T17:20:53.454Z,1.98
2022-08-14T17:23:12.290Z,2.35
2022-08-14T17:25:40.155Z,2.20
2022-08-14T17:28:50.071Z,2.60
2022-08-14T17:31:05.021Z,2.40
2022-08-14T17:33:44.284Z,2.40
2022-08-14T17:36:24.262Z,2.65
2022-08-14T17:38:59.622Z,2.70
2022-08-14T17:41:33.030Z,2.53
2022-08-14T17:44:33.343Z,2.70
2022-08-14T17:47:10.040Z,2.08
2022-08-14T17:49:45.583Z,2.20
2022-08-14T17:52:17.159Z,1.50
2022-08-14T17:54:47.485Z,1.90
2022-08-14T17:57:29.481Z,2.17
2022-08-14T18:00:02.399Z,2.15
2022-08-14T18:02:31.424Z,2.25
2022-08-14T18:04:59.979Z,2.22
2022-08-14T18:08:31.526Z,2.97
2022-08-14T18:10:54.891Z,3.25
2022-08-14T18:13:03.678Z,2.88
2022-08-14T18:15:37.309Z,2.28
2022-08-14T18:18:06.773Z,2.60
2022-08-14T18:21:24.391Z,2.83
2022-08-14T18:23:26.474Z,2.22
2022-08-14T18:25:56.708Z,2.03
2022-08-14T18:28:48.443Z,2.08
2022-08-14T18:31:22.746Z,2.63
2022-08-14T18:34:07.380Z,2.42
2022-08-14T18:36:48.337Z,2.78
2022-08-14T18:39:32.943Z,1.90
2022-08-14T18:42:22.953Z,2.45
2022-08-14T18:44:50.578Z,2.70
2022-08-14T18:47:17.444Z,2.20
2022-08-14T18:50:26.335Z,2.55
2022-08-14T18:52:53.332Z,2.85
2022-08-14T18:55:20.948Z,2.50
2022-08-14T18:58:31.019Z,2.95
2022-08-14T19:00:55.954Z,3.17
2022-08-14T19:03:34.119Z,3.05
2022-08-14T19:06:08.547Z,3.50
2022-08-14T19:08:49.448Z,2.72
2022-08-14T19:11:32.127Z,2.95
2022-08-14T19:14:05.153Z,2.67
2022-08-14T19:16:33.642Z,4.40
2022-08-14T19:19:03.893Z,3.72
2022-08-14T19:21:38.416Z,4.03
2022-08-14T19:24:27.082Z,3.50
2022-08-14T19:27:23.567Z,4.65
2022-08-14T19:30:21.006Z,3.08
2022-08-14T19:32:52.299Z,3.97
2022-08-14T19:35:24.788Z,2.75
2022-08-14T19:38:32.941Z,3.35
2022-08-14T19:40:58.683Z,3.08
2022-08-14T19:43:55.042Z,2.60
2022-08-14T19:46:38.054Z,3.95
2022-08-14T19:49:02.196Z,4.22
2022-08-14T19:51:32.901Z,4.10
2022-08-14T19:54:13.283Z,3.88
2022-08-14T19:56:42.477Z,4.30
2022-08-14T19:59:18.036Z,3.33
2022-08-14T20:01:49.346Z,4.22
2022-08-14T20:04:47.054Z,4.10
2022-08-14T20:07:26.751Z,4.30
2022-08-14T20:11:03.835Z,3.03
2022-08-14T20:12:57.690Z,3.13
2022-08-14T20:15:47.254Z,2.70
2022-08-14T20:18:39.047Z,3.53
2022-08-14T20:21:05.121Z,2.65
2022-08-14T20:23:38.537Z,3.03
2022-08-14T20:26:31.415Z,3.05
2022-08-14T20:28:59.051Z,3.40
2022-08-14T20:31:37.050Z,3.03
2022-08-14T20:34:24.400Z,2.78
2022-08-14T20:37:22.034Z,3.25
2022-08-14T20:39:53.670Z,3.70
2022-08-14T20:42:43.786Z,3.28
2022-08-14T20:45:21.542Z,3.15
2022-08-14T20:47:56.532Z,4.15
2022-08-14T20:50:28.575Z,2.50
2022-08-14T20:52:58.022Z,3.85
2022-08-14T20:55:32.342Z,4.05
2022-08-14T20:58:10.029Z,3.47
2022-08-14T21:01:15.741Z,2.80
2022-08-14T21:03:57.444Z,3.05
2022-08-14T21:06:27.032Z,3.40
2022-08-14T21:08:57.860Z,3.13
2022-08-14T21:11:26.232Z,2.88
2022-08-14T21:14:24.552Z,3.38
2022-08-14T21:16:58.612Z,2.70
2022-08-14T21:19:29.325Z,2.80
2022-08-14T21:21:57.534Z,2.67
2022-08-14T21:24:39.664Z,2.72
2022-08-14T21:27:20.433Z,3.30
2022-08-14T21:29:56.014Z,3.15
2022-08-14T21:32:47.291Z,2.53
2022-08-14T21:35:24.584Z,3.10
2022-08-14T21:37:52.387Z,2.70
2022-08-14T21:40:40.834Z,2.78
2022-08-14T21:43:18.378Z,2.80
2022-08-14T21:45:53.154Z,2.53
2022-08-14T21:48:21.327Z,2.50
2022-08-14T21:51:01.150Z,3.03
2022-08-14T21:53:32.742Z,3.38
2022-08-14T21:56:01.235Z,2.78
2022-08-14T21:58:52.866Z,2.70
2022-08-14T22:01:17.237Z,2.78
2022-08-14T22:03:45.047Z,2.70
2022-08-14T22:06:17.402Z,3.50
2022-08-14T22:08:46.536Z,2.95
2022-08-14T22:11:20.287Z,3.00
2022-08-14T22:13:48.984Z,2.80
2022-08-14T22:17:00.168Z,2.92
2022-08-14T22:19:04.573Z,2.70
2022-08-14T22:21:38.027Z,2.65
2022-08-14T22:24:12.278Z,2.80
2022-08-14T22:27:01.382Z,2.75
2022-08-14T22:29:28.827Z,3.17
2022-08-14T22:31:55.590Z,3.17
2022-08-14T22:34:22.661Z,2.90
2022-08-14T22:36:50.918Z,2.88
2022-08-14T22:40:17.497Z,2.95
2022-08-14T22:42:21.491Z,3.28
2022-08-14T22:44:51.420Z,3.33
2022-08-14T22:47:25.111Z,3.70
2022-08-14T22:50:30.889Z,3.15
2022-08-14T22:52:39.081Z,3.13
2022-08-14T22:55:06.536Z,3.13
2022-08-14T22:57:41.734Z,3.22
2022-08-14T23:00:13.792Z,3.25
2022-08-14T23:02:41.748Z,3.38
2022-08-14T23:05:12.863Z,3.30
2022-08-14T23:08:44.082Z,3.25
2022-08-14T23:10:31.731Z,2.60
2022-08-14T23:13:02.347Z,2.80
2022-08-14T23:15:30.406Z,3.08
2022-08-14T23:17:57.628Z,3.10
2022-08-14T23:20:29.536Z,3.00
2022-08-14T23:22:57.500Z,3.22
2022-08-14T23:25:57.538Z,3.15
2022-08-14T23:28:34.417Z,3.20
2022-08-14T23:31:08.560Z,3.30
2022-08-14T23:33:46.107Z,3.00
2022-08-14T23:36:31.778Z,2.80
2022-08-14T23:39:07.127Z,2.75
2022-08-14T23:41:46.415Z,3.40
2022-08-14T23:44:21.738Z,3.55
2022-08-14T23:46:49.508Z,3.35
2022-08-14T23:49:21.280Z,3.28
2022-08-14T23:51:48.983Z,3.55
2022-08-14T23:54:48.306Z,3.20
2022-08-14T23:57:16.490Z,3.38
2022-08-14T23:59:54.686Z,3.10
